Allendale, SC

10:23 AM EDT on July 28, 2014 (GMT -0400)
Joe Miley Road (KSCBRUNS5) Elev 130 ft | 32.94 °N, 81.13 °W | Change Station
Active Advisory: Heat Advisory Active Notice: Record Report

Current weather conditions updated 8 minutes ago

Clear
Clear
85.6 °F
Feels Like 97 °F
N
2.7
Wind Variable Wind from SSE

Today is forecast to be Cooler than yesterday. Scattered thunderstorms possible.

Today
High -- | Low -- °F
--% Chance of Precip.
Yesterday
High -- | Low -- °F
Precip. -- in
6:35 AM 8:27 PM
New Moon, 2% visible
Pressure 29.92 in
Visibility 10.0 miles
Clouds Clear
Heat Index 97 °F
Dew Point 78 °F
Humidity 77%
Rainfall 0.00 in
Snow Depth Not available.
UV 5 out of 12
Pollen 5.90 out of 12
Air Quality Not available.
Flu Activity Not available.
METAR KJYL 281355Z AUTO 25006KT 10SM CLR 29/26 A2992 RMK AO2 T02940260

More Conditions Fewer Conditions

Pressure 29.92 in
Visibility 10.0 miles
Clouds Clear
Heat Index 97 °F
Dew Point 78 °F
Humidity 77%
Rainfall 0.00 in
Snow Depth Not available.
UV 5 out of 12
Pollen 5.90 out of 12
Air Quality Not available.
Flu Activity Not available.
METAR KJYL 281355Z AUTO 25006KT 10SM CLR 29/26 A2992 RMK AO2 T02940260

More Conditions Fewer Conditions

10-Day Weather Forecast

Almanac

Astronomy

Jul. 28, 2014 Rise Set
Actual Time 6:35 AM EDT 8:27 PM EDT
Civil Twilight 6:08 AM EDT 8:54 PM EDT
Nautical Twilight 5:35 AM EDT 9:27 PM EDT
Astronomical Twilight 5:00 AM EDT 10:02 PM EDT
Moon 8:08 AM EDT 9:17 PM EDT
Length of Visible Light 14h 45m
Length of Day
13h 51m
Tomorrow will be 1m 26s shorter.
New Moon, 2% of the Moon is Illuminated
Today
New Moon
Aug 3
First Quarter
Aug 10
Full
Aug 17
Last Quarter
Aug 25
New

Today's Extremes

State Highs State Lows

Community

WunderPhotos

Upload Photos

1,738,337 photos uploaded!

Nearby

Snow Depth

Station Depth Elevation
No new snow has been reported.

Earthquake Activity

City Distance Mag. Time & Date
No recent earthquake activity has been reported nearby.
Minimum magnitude displayed is 2.5.

Coastal Water Temperatures

Place Temperature
No Stations Reporting

Nearby Weather Stations

Station Location Temp. Heat Index Dew Point Humidity Wind Precip. Elev Updated Type
Joe Miley Road, Brunson, SC 85.6 °F 97 °F 78 °F 77% SSE  at  2.7 mph - / hr 130 ft 10:15 AM EDT Normal
MesoWest YOUMANS FARM , Estill, SC 82 °F 91 °F 78 °F 87% SW  at  6 mph 0.00 in / hr 75 ft 9:00 AM EDT MADIS
Edisto Research Education Center, Blackville, SC 82.9 °F 92 °F 78 °F 84% NW  at  7.4 mph 0.00 in / hr 322 ft 10:23 AM EDT Rapid Fire

Show More Stations Show Fewer Stations